sensor_id;sensor_type;location;lat;lon;timestamp;P1;durP1;ratioP1;P2;durP2;ratioP2
23185;SDS011;11761;51.324;4.590;2023-03-03T00:02:08;50.67;;;22.50;;
23185;SDS011;11761;51.324;4.590;2023-03-03T00:04:35;44.28;;;21.40;;
23185;SDS011;11761;51.324;4.590;2023-03-03T00:07:02;46.47;;;21.05;;
23185;SDS011;11761;51.324;4.590;2023-03-03T00:09:27;49.13;;;23.00;;
23185;SDS011;11761;51.324;4.590;2023-03-03T00:11:54;52.35;;;21.77;;
23185;SDS011;11761;51.324;4.590;2023-03-03T00:14:29;47.38;;;22.35;;
23185;SDS011;11761;51.324;4.590;2023-03-03T00:16:57;46.15;;;21.67;;
23185;SDS011;11761;51.324;4.590;2023-03-03T00:19:25;48.28;;;22.65;;
23185;SDS011;11761;51.324;4.590;2023-03-03T00:21:51;51.35;;;22.75;;
23185;SDS011;11761;51.324;4.590;2023-03-03T00:24:23;49.88;;;22.67;;
23185;SDS011;11761;51.324;4.590;2023-03-03T00:26:54;52.13;;;23.40;;
23185;SDS011;11761;51.324;4.590;2023-03-03T00:34:40;54.60;;;23.08;;
23185;SDS011;11761;51.324;4.590;2023-03-03T00:37:26;57.60;;;24.35;;
23185;SDS011;11761;51.324;4.590;2023-03-03T00:42:48;49.58;;;23.05;;
23185;SDS011;11761;51.324;4.590;2023-03-03T00:45:17;56.75;;;23.77;;
23185;SDS011;11761;51.324;4.590;2023-03-03T00:47:49;56.28;;;23.23;;
23185;SDS011;11761;51.324;4.590;2023-03-03T00:50:32;58.70;;;24.98;;
23185;SDS011;11761;51.324;4.590;2023-03-03T00:53:00;53.83;;;23.52;;
23185;SDS011;11761;51.324;4.590;2023-03-03T00:55:29;56.15;;;23.90;;
23185;SDS011;11761;51.324;4.590;2023-03-03T00:57:56;53.92;;;22.65;;
23185;SDS011;11761;51.324;4.590;2023-03-03T01:00:23;53.03;;;23.08;;
23185;SDS011;11761;51.324;4.590;2023-03-03T01:02:49;55.45;;;23.55;;
23185;SDS011;11761;51.324;4.590;2023-03-03T01:05:17;49.03;;;23.15;;
23185;SDS011;11761;51.324;4.590;2023-03-03T01:07:43;58.35;;;24.75;;
23185;SDS011;11761;51.324;4.590;2023-03-03T01:10:09;63.17;;;24.67;;
23185;SDS011;11761;51.324;4.590;2023-03-03T01:12:35;63.20;;;24.40;;
23185;SDS011;11761;51.324;4.590;2023-03-03T01:15:07;52.65;;;23.98;;
23185;SDS011;11761;51.324;4.590;2023-03-03T01:17:34;59.47;;;23.90;;
23185;SDS011;11761;51.324;4.590;2023-03-03T01:20:02;61.90;;;24.75;;
23185;SDS011;11761;51.324;4.590;2023-03-03T01:22:28;57.40;;;23.52;;
23185;SDS011;11761;51.324;4.590;2023-03-03T01:24:54;51.63;;;23.75;;
23185;SDS011;11761;51.324;4.590;2023-03-03T01:27:20;56.45;;;23.85;;
23185;SDS011;11761;51.324;4.590;2023-03-03T01:29:46;60.92;;;24.55;;
23185;SDS011;11761;51.324;4.590;2023-03-03T01:32:12;61.00;;;23.80;;
23185;SDS011;11761;51.324;4.590;2023-03-03T01:34:38;55.25;;;23.38;;
23185;SDS011;11761;51.324;4.590;2023-03-03T01:37:03;56.90;;;23.95;;
23185;SDS011;11761;51.324;4.590;2023-03-03T01:39:29;57.42;;;23.98;;
23185;SDS011;11761;51.324;4.590;2023-03-03T01:41:55;63.60;;;24.27;;
23185;SDS011;11761;51.324;4.590;2023-03-03T01:44:21;59.95;;;23.90;;
23185;SDS011;11761;51.324;4.590;2023-03-03T01:46:52;61.70;;;25.17;;
23185;SDS011;11761;51.324;4.590;2023-03-03T01:49:28;60.25;;;24.48;;
23185;SDS011;11761;51.324;4.590;2023-03-03T01:52:01;67.32;;;25.70;;
23185;SDS011;11761;51.324;4.590;2023-03-03T01:54:35;67.82;;;26.65;;
23185;SDS011;11761;51.324;4.590;2023-03-03T01:57:09;71.35;;;27.33;;
23185;SDS011;11761;51.324;4.590;2023-03-03T01:59:41;68.20;;;27.38;;
23185;SDS011;11761;51.324;4.590;2023-03-03T02:02:12;74.03;;;27.90;;
23185;SDS011;11761;51.324;4.590;2023-03-03T02:04:38;78.25;;;29.00;;
23185;SDS011;11761;51.324;4.590;2023-03-03T02:07:05;82.00;;;28.63;;
23185;SDS011;11761;51.324;4.590;2023-03-03T02:12:16;73.07;;;28.45;;
23185;SDS011;11761;51.324;4.590;2023-03-03T02:14:44;84.20;;;30.00;;
23185;SDS011;11761;51.324;4.590;2023-03-03T02:17:10;78.28;;;29.88;;
23185;SDS011;11761;51.324;4.590;2023-03-03T02:22:08;76.30;;;29.80;;
23185;SDS011;11761;51.324;4.590;2023-03-03T02:24:50;87.60;;;30.30;;
23185;SDS011;11761;51.324;4.590;2023-03-03T02:27:21;95.80;;;31.25;;
23185;SDS011;11761;51.324;4.590;2023-03-03T02:29:47;81.18;;;30.58;;
23185;SDS011;11761;51.324;4.590;2023-03-03T02:32:14;87.65;;;32.22;;
23185;SDS011;11761;51.324;4.590;2023-03-03T02:34:58;88.35;;;31.52;;
23185;SDS011;11761;51.324;4.590;2023-03-03T02:37:24;88.72;;;31.30;;
23185;SDS011;11761;51.324;4.590;2023-03-03T02:39:50;87.22;;;31.17;;
23185;SDS011;11761;51.324;4.590;2023-03-03T02:44:42;81.72;;;30.65;;
23185;SDS011;11761;51.324;4.590;2023-03-03T02:47:10;77.10;;;30.02;;
23185;SDS011;11761;51.324;4.590;2023-03-03T02:49:35;80.97;;;30.27;;
23185;SDS011;11761;51.324;4.590;2023-03-03T02:52:03;77.93;;;29.40;;
23185;SDS011;11761;51.324;4.590;2023-03-03T02:54:31;80.18;;;29.10;;
23185;SDS011;11761;51.324;4.590;2023-03-03T02:56:58;77.25;;;29.65;;
23185;SDS011;11761;51.324;4.590;2023-03-03T02:59:24;77.53;;;29.65;;
23185;SDS011;11761;51.324;4.590;2023-03-03T03:01:51;77.18;;;30.58;;
23185;SDS011;11761;51.324;4.590;2023-03-03T03:04:18;82.78;;;30.40;;
23185;SDS011;11761;51.324;4.590;2023-03-03T03:06:49;87.15;;;31.48;;
23185;SDS011;11761;51.324;4.590;2023-03-03T03:09:16;85.90;;;31.25;;
23185;SDS011;11761;51.324;4.590;2023-03-03T03:11:42;85.25;;;32.25;;
23185;SDS011;11761;51.324;4.590;2023-03-03T03:14:10;86.00;;;34.17;;
23185;SDS011;11761;51.324;4.590;2023-03-03T03:16:37;83.80;;;32.08;;
23185;SDS011;11761;51.324;4.590;2023-03-03T03:19:04;82.63;;;32.63;;
23185;SDS011;11761;51.324;4.590;2023-03-03T03:21:30;83.20;;;32.50;;
23185;SDS011;11761;51.324;4.590;2023-03-03T03:23:57;88.78;;;35.28;;
23185;SDS011;11761;51.324;4.590;2023-03-03T03:26:23;91.00;;;33.13;;
23185;SDS011;11761;51.324;4.590;2023-03-03T03:28:49;82.97;;;32.47;;
23185;SDS011;11761;51.324;4.590;2023-03-03T03:31:16;87.20;;;33.53;;
23185;SDS011;11761;51.324;4.590;2023-03-03T03:33:42;88.30;;;32.00;;
23185;SDS011;11761;51.324;4.590;2023-03-03T03:36:09;83.07;;;31.00;;
23185;SDS011;11761;51.324;4.590;2023-03-03T03:38:36;85.03;;;32.00;;
23185;SDS011;11761;51.324;4.590;2023-03-03T03:41:03;80.13;;;28.83;;
23185;SDS011;11761;51.324;4.590;2023-03-03T03:43:30;77.28;;;30.52;;
23185;SDS011;11761;51.324;4.590;2023-03-03T03:45:56;84.80;;;31.02;;
23185;SDS011;11761;51.324;4.590;2023-03-03T03:48:23;79.07;;;29.10;;
23185;SDS011;11761;51.324;4.590;2023-03-03T03:50:49;71.53;;;27.20;;
23185;SDS011;11761;51.324;4.590;2023-03-03T03:53:16;75.57;;;29.35;;
23185;SDS011;11761;51.324;4.590;2023-03-03T03:55:43;82.20;;;29.00;;
23185;SDS011;11761;51.324;4.590;2023-03-03T03:58:11;88.57;;;31.00;;
23185;SDS011;11761;51.324;4.590;2023-03-03T04:00:43;81.10;;;28.75;;
23185;SDS011;11761;51.324;4.590;2023-03-03T04:03:09;82.50;;;30.50;;
23185;SDS011;11761;51.324;4.590;2023-03-03T04:05:36;90.85;;;31.27;;
23185;SDS011;11761;51.324;4.590;2023-03-03T04:08:02;82.05;;;29.90;;
23185;SDS011;11761;51.324;4.590;2023-03-03T04:10:28;88.88;;;30.52;;
23185;SDS011;11761;51.324;4.590;2023-03-03T04:12:54;80.38;;;29.05;;
23185;SDS011;11761;51.324;4.590;2023-03-03T04:15:20;83.30;;;29.50;;
23185;SDS011;11761;51.324;4.590;2023-03-03T04:17:46;84.05;;;28.85;;
23185;SDS011;11761;51.324;4.590;2023-03-03T04:20:13;85.43;;;29.00;;
23185;SDS011;11761;51.324;4.590;2023-03-03T04:22:40;93.20;;;29.65;;
23185;SDS011;11761;51.324;4.590;2023-03-03T04:25:07;87.55;;;29.88;;
23185;SDS011;11761;51.324;4.590;2023-03-03T04:27:36;94.63;;;31.63;;
23185;SDS011;11761;51.324;4.590;2023-03-03T04:30:04;83.65;;;28.73;;
23185;SDS011;11761;51.324;4.590;2023-03-03T04:32:31;79.78;;;26.63;;
23185;SDS011;11761;51.324;4.590;2023-03-03T04:34:58;71.95;;;26.90;;
23185;SDS011;11761;51.324;4.590;2023-03-03T04:37:24;71.18;;;23.48;;
23185;SDS011;11761;51.324;4.590;2023-03-03T04:39:50;68.22;;;24.08;;
23185;SDS011;11761;51.324;4.590;2023-03-03T04:42:16;71.72;;;23.23;;
23185;SDS011;11761;51.324;4.590;2023-03-03T04:44:42;71.07;;;23.48;;
23185;SDS011;11761;51.324;4.590;2023-03-03T04:47:08;70.65;;;24.60;;
23185;SDS011;11761;51.324;4.590;2023-03-03T04:49:34;76.90;;;25.60;;
23185;SDS011;11761;51.324;4.590;2023-03-03T04:52:01;73.70;;;24.75;;
23185;SDS011;11761;51.324;4.590;2023-03-03T04:54:27;79.82;;;26.30;;
23185;SDS011;11761;51.324;4.590;2023-03-03T04:56:54;68.53;;;23.92;;
23185;SDS011;11761;51.324;4.590;2023-03-03T04:59:20;62.22;;;22.27;;
23185;SDS011;11761;51.324;4.590;2023-03-03T05:01:46;73.18;;;24.05;;
23185;SDS011;11761;51.324;4.590;2023-03-03T05:04:11;69.20;;;22.45;;
23185;SDS011;11761;51.324;4.590;2023-03-03T05:06:37;64.53;;;23.58;;
23185;SDS011;11761;51.324;4.590;2023-03-03T05:09:03;72.13;;;24.83;;
23185;SDS011;11761;51.324;4.590;2023-03-03T05:11:29;67.22;;;24.67;;
23185;SDS011;11761;51.324;4.590;2023-03-03T05:13:56;67.50;;;24.60;;
23185;SDS011;11761;51.324;4.590;2023-03-03T05:16:22;77.65;;;24.13;;
23185;SDS011;11761;51.324;4.590;2023-03-03T05:18:48;71.78;;;23.30;;
23185;SDS011;11761;51.324;4.590;2023-03-03T05:21:14;74.55;;;25.17;;
23185;SDS011;11761;51.324;4.590;2023-03-03T05:23:41;70.50;;;24.30;;
23185;SDS011;11761;51.324;4.590;2023-03-03T05:26:07;72.50;;;23.58;;
23185;SDS011;11761;51.324;4.590;2023-03-03T05:28:33;63.83;;;22.70;;
23185;SDS011;11761;51.324;4.590;2023-03-03T05:30:59;67.20;;;23.83;;
23185;SDS011;11761;51.324;4.590;2023-03-03T05:33:25;62.45;;;22.70;;
23185;SDS011;11761;51.324;4.590;2023-03-03T05:35:52;63.30;;;22.83;;
23185;SDS011;11761;51.324;4.590;2023-03-03T05:38:19;71.22;;;25.02;;
23185;SDS011;11761;51.324;4.590;2023-03-03T05:40:46;67.75;;;24.20;;
23185;SDS011;11761;51.324;4.590;2023-03-03T05:43:12;77.78;;;26.70;;
23185;SDS011;11761;51.324;4.590;2023-03-03T05:45:38;69.97;;;25.83;;
23185;SDS011;11761;51.324;4.590;2023-03-03T05:48:04;79.25;;;28.25;;
23185;SDS011;11761;51.324;4.590;2023-03-03T05:50:30;79.65;;;27.65;;
23185;SDS011;11761;51.324;4.590;2023-03-03T05:52:56;65.53;;;24.45;;
23185;SDS011;11761;51.324;4.590;2023-03-03T05:55:22;67.68;;;26.30;;
23185;SDS011;11761;51.324;4.590;2023-03-03T05:57:48;69.20;;;25.38;;
23185;SDS011;11761;51.324;4.590;2023-03-03T06:00:15;71.70;;;26.50;;
23185;SDS011;11761;51.324;4.590;2023-03-03T06:02:41;72.50;;;27.10;;
23185;SDS011;11761;51.324;4.590;2023-03-03T06:05:07;62.47;;;24.35;;
23185;SDS011;11761;51.324;4.590;2023-03-03T06:07:34;66.75;;;23.38;;
23185;SDS011;11761;51.324;4.590;2023-03-03T06:10:01;66.05;;;22.70;;
23185;SDS011;11761;51.324;4.590;2023-03-03T06:12:29;62.72;;;23.08;;
23185;SDS011;11761;51.324;4.590;2023-03-03T06:14:55;66.57;;;22.98;;
23185;SDS011;11761;51.324;4.590;2023-03-03T06:17:21;62.38;;;23.80;;
23185;SDS011;11761;51.324;4.590;2023-03-03T06:19:46;68.53;;;24.77;;
23185;SDS011;11761;51.324;4.590;2023-03-03T06:22:12;63.78;;;23.83;;
23185;SDS011;11761;51.324;4.590;2023-03-03T06:24:38;69.38;;;24.67;;
23185;SDS011;11761;51.324;4.590;2023-03-03T06:27:04;63.92;;;24.00;;
23185;SDS011;11761;51.324;4.590;2023-03-03T06:29:30;61.17;;;23.52;;
23185;SDS011;11761;51.324;4.590;2023-03-03T06:31:56;59.92;;;22.88;;
23185;SDS011;11761;51.324;4.590;2023-03-03T06:34:22;58.67;;;22.73;;
23185;SDS011;11761;51.324;4.590;2023-03-03T06:36:48;59.55;;;22.60;;
23185;SDS011;11761;51.324;4.590;2023-03-03T06:39:14;57.90;;;23.48;;
23185;SDS011;11761;51.324;4.590;2023-03-03T06:41:40;60.55;;;22.42;;
23185;SDS011;11761;51.324;4.590;2023-03-03T06:44:06;56.15;;;22.02;;
23185;SDS011;11761;51.324;4.590;2023-03-03T06:46:32;49.42;;;20.50;;
23185;SDS011;11761;51.324;4.590;2023-03-03T06:48:58;48.83;;;20.30;;
23185;SDS011;11761;51.324;4.590;2023-03-03T06:51:26;48.95;;;20.55;;
23185;SDS011;11761;51.324;4.590;2023-03-03T06:53:58;47.92;;;18.88;;
23185;SDS011;11761;51.324;4.590;2023-03-03T06:56:32;47.60;;;19.35;;
23185;SDS011;11761;51.324;4.590;2023-03-03T06:59:00;46.22;;;19.52;;
23185;SDS011;11761;51.324;4.590;2023-03-03T07:01:33;44.03;;;19.30;;
23185;SDS011;11761;51.324;4.590;2023-03-03T07:04:48;45.03;;;18.95;;
23185;SDS011;11761;51.324;4.590;2023-03-03T07:06:56;46.45;;;17.80;;
23185;SDS011;11761;51.324;4.590;2023-03-03T07:09:25;44.45;;;17.95;;
23185;SDS011;11761;51.324;4.590;2023-03-03T07:11:56;40.00;;;18.35;;
23185;SDS011;11761;51.324;4.590;2023-03-03T07:14:27;40.80;;;18.08;;
23185;SDS011;11761;51.324;4.590;2023-03-03T07:16:55;40.60;;;18.38;;
23185;SDS011;11761;51.324;4.590;2023-03-03T07:19:34;38.10;;;16.92;;
23185;SDS011;11761;51.324;4.590;2023-03-03T07:22:23;36.53;;;17.50;;
23185;SDS011;11761;51.324;4.590;2023-03-03T07:24:53;35.90;;;15.70;;
23185;SDS011;11761;51.324;4.590;2023-03-03T07:27:28;36.22;;;14.90;;
23185;SDS011;11761;51.324;4.590;2023-03-03T07:32:53;35.22;;;16.20;;
23185;SDS011;11761;51.324;4.590;2023-03-03T07:38:15;36.35;;;16.02;;
23185;SDS011;11761;51.324;4.590;2023-03-03T07:40:53;32.28;;;15.55;;
23185;SDS011;11761;51.324;4.590;2023-03-03T07:43:26;35.08;;;15.80;;
23185;SDS011;11761;51.324;4.590;2023-03-03T07:48:42;33.67;;;15.15;;
23185;SDS011;11761;51.324;4.590;2023-03-03T07:51:15;34.83;;;15.35;;
23185;SDS011;11761;51.324;4.590;2023-03-03T07:53:47;31.25;;;14.43;;
23185;SDS011;11761;51.324;4.590;2023-03-03T07:56:14;28.02;;;13.05;;
23185;SDS011;11761;51.324;4.590;2023-03-03T07:58:50;28.55;;;13.15;;
23185;SDS011;11761;51.324;4.590;2023-03-03T08:03:53;32.55;;;14.40;;
23185;SDS011;11761;51.324;4.590;2023-03-03T08:11:35;32.97;;;14.73;;
23185;SDS011;11761;51.324;4.590;2023-03-03T08:14:12;31.75;;;15.82;;
23185;SDS011;11761;51.324;4.590;2023-03-03T08:16:41;35.97;;;15.02;;
23185;SDS011;11761;51.324;4.590;2023-03-03T08:19:08;35.22;;;17.15;;
23185;SDS011;11761;51.324;4.590;2023-03-03T08:21:37;37.45;;;16.63;;
23185;SDS011;11761;51.324;4.590;2023-03-03T08:24:03;31.85;;;15.02;;
23185;SDS011;11761;51.324;4.590;2023-03-03T08:26:29;35.22;;;15.70;;
23185;SDS011;11761;51.324;4.590;2023-03-03T08:28:55;35.97;;;16.42;;
23185;SDS011;11761;51.324;4.590;2023-03-03T08:31:21;29.65;;;15.07;;
23185;SDS011;11761;51.324;4.590;2023-03-03T08:33:47;35.60;;;16.60;;
23185;SDS011;11761;51.324;4.590;2023-03-03T08:36:13;31.63;;;14.25;;
23185;SDS011;11761;51.324;4.590;2023-03-03T08:38:39;35.05;;;15.48;;
23185;SDS011;11761;51.324;4.590;2023-03-03T08:41:06;32.15;;;14.90;;
23185;SDS011;11761;51.324;4.590;2023-03-03T08:43:32;31.58;;;14.98;;
23185;SDS011;11761;51.324;4.590;2023-03-03T08:45:59;31.02;;;15.40;;
23185;SDS011;11761;51.324;4.590;2023-03-03T08:48:29;34.75;;;15.88;;
23185;SDS011;11761;51.324;4.590;2023-03-03T08:50:56;34.13;;;15.63;;
23185;SDS011;11761;51.324;4.590;2023-03-03T08:53:23;34.70;;;15.40;;
23185;SDS011;11761;51.324;4.590;2023-03-03T08:55:49;37.47;;;15.80;;
23185;SDS011;11761;51.324;4.590;2023-03-03T08:58:15;35.45;;;15.10;;
23185;SDS011;11761;51.324;4.590;2023-03-03T09:00:42;32.58;;;14.48;;
23185;SDS011;11761;51.324;4.590;2023-03-03T09:03:08;33.35;;;14.77;;
23185;SDS011;11761;51.324;4.590;2023-03-03T09:05:35;33.03;;;14.90;;
23185;SDS011;11761;51.324;4.590;2023-03-03T09:08:03;35.58;;;15.85;;
23185;SDS011;11761;51.324;4.590;2023-03-03T09:10:30;31.08;;;15.02;;
23185;SDS011;11761;51.324;4.590;2023-03-03T09:12:57;31.05;;;14.10;;
23185;SDS011;11761;51.324;4.590;2023-03-03T09:15:30;30.48;;;14.25;;
23185;SDS011;11761;51.324;4.590;2023-03-03T09:18:09;31.25;;;14.43;;
23185;SDS011;11761;51.324;4.590;2023-03-03T09:20:41;27.17;;;13.13;;
23185;SDS011;11761;51.324;4.590;2023-03-03T09:23:20;26.73;;;13.13;;
23185;SDS011;11761;51.324;4.590;2023-03-03T09:25:51;26.10;;;13.02;;
23185;SDS011;11761;51.324;4.590;2023-03-03T09:28:25;24.48;;;12.23;;
23185;SDS011;11761;51.324;4.590;2023-03-03T09:30:54;23.17;;;11.88;;
23185;SDS011;11761;51.324;4.590;2023-03-03T09:33:24;28.02;;;13.07;;
23185;SDS011;11761;51.324;4.590;2023-03-03T09:36:35;25.40;;;11.38;;
23185;SDS011;11761;51.324;4.590;2023-03-03T09:38:49;24.60;;;12.57;;
23185;SDS011;11761;51.324;4.590;2023-03-03T09:49:41;21.08;;;9.23;;
23185;SDS011;11761;51.324;4.590;2023-03-03T09:55:33;25.42;;;10.38;;
23185;SDS011;11761;51.324;4.590;2023-03-03T10:06:23;21.70;;;8.93;;
23185;SDS011;11761;51.324;4.590;2023-03-03T10:08:56;19.75;;;9.02;;
23185;SDS011;11761;51.324;4.590;2023-03-03T10:20:13;18.27;;;8.48;;
23185;SDS011;11761;51.324;4.590;2023-03-03T10:38:51;21.23;;;7.55;;
23185;SDS011;11761;51.324;4.590;2023-03-03T10:41:31;17.25;;;7.65;;
23185;SDS011;11761;51.324;4.590;2023-03-03T11:20:37;19.48;;;8.15;;
23185;SDS011;11761;51.324;4.590;2023-03-03T11:26:07;17.05;;;6.32;;
23185;SDS011;11761;51.324;4.590;2023-03-03T11:29:17;21.25;;;7.80;;
23185;SDS011;11761;51.324;4.590;2023-03-03T11:34:34;19.88;;;8.43;;
23185;SDS011;11761;51.324;4.590;2023-03-03T11:37:28;19.85;;;8.27;;
23185;SDS011;11761;51.324;4.590;2023-03-03T11:40:17;18.42;;;7.88;;
23185;SDS011;11761;51.324;4.590;2023-03-03T11:45:27;11.98;;;6.45;;
23185;SDS011;11761;51.324;4.590;2023-03-03T11:48:21;12.52;;;5.88;;
23185;SDS011;11761;51.324;4.590;2023-03-03T11:51:06;10.73;;;5.40;;
23185;SDS011;11761;51.324;4.590;2023-03-03T11:56:20;12.32;;;6.45;;
23185;SDS011;11761;51.324;4.590;2023-03-03T11:58:53;12.52;;;6.13;;
23185;SDS011;11761;51.324;4.590;2023-03-03T12:04:05;13.02;;;6.45;;
23185;SDS011;11761;51.324;4.590;2023-03-03T12:12:32;17.50;;;8.43;;
23185;SDS011;11761;51.324;4.590;2023-03-03T12:20:20;14.68;;;7.07;;
23185;SDS011;11761;51.324;4.590;2023-03-03T12:23:07;13.95;;;6.82;;
23185;SDS011;11761;51.324;4.590;2023-03-03T12:25:45;15.88;;;7.38;;
23185;SDS011;11761;51.324;4.590;2023-03-03T12:28:36;12.18;;;6.00;;
23185;SDS011;11761;51.324;4.590;2023-03-03T12:47:45;11.90;;;5.65;;
23185;SDS011;11761;51.324;4.590;2023-03-03T12:50:27;13.25;;;5.57;;
23185;SDS011;11761;51.324;4.590;2023-03-03T13:00:57;8.35;;;4.93;;
23185;SDS011;11761;51.324;4.590;2023-03-03T13:06:32;8.82;;;4.78;;
23185;SDS011;11761;51.324;4.590;2023-03-03T13:14:34;11.35;;;5.30;;
23185;SDS011;11761;51.324;4.590;2023-03-03T13:19:51;10.60;;;5.63;;
23185;SDS011;11761;51.324;4.590;2023-03-03T13:22:29;10.65;;;5.22;;
23185;SDS011;11761;51.324;4.590;2023-03-03T13:25:06;10.65;;;5.32;;
23185;SDS011;11761;51.324;4.590;2023-03-03T13:27:43;10.35;;;5.75;;
23185;SDS011;11761;51.324;4.590;2023-03-03T13:30:21;9.10;;;4.70;;
23185;SDS011;11761;51.324;4.590;2023-03-03T13:32:53;8.07;;;4.45;;
23185;SDS011;11761;51.324;4.590;2023-03-03T13:35:54;7.18;;;4.43;;
23185;SDS011;11761;51.324;4.590;2023-03-03T13:38:28;10.25;;;5.78;;
23185;SDS011;11761;51.324;4.590;2023-03-03T13:41:56;10.27;;;5.05;;
23185;SDS011;11761;51.324;4.590;2023-03-03T13:46:35;12.45;;;4.80;;
23185;SDS011;11761;51.324;4.590;2023-03-03T13:52:26;8.75;;;4.47;;
23185;SDS011;11761;51.324;4.590;2023-03-03T14:00:34;8.30;;;4.68;;
23185;SDS011;11761;51.324;4.590;2023-03-03T14:05:48;8.57;;;5.05;;
23185;SDS011;11761;51.324;4.590;2023-03-03T14:14:03;11.15;;;5.15;;
23185;SDS011;11761;51.324;4.590;2023-03-03T14:16:45;9.38;;;5.13;;
23185;SDS011;11761;51.324;4.590;2023-03-03T14:19:24;9.38;;;4.30;;
23185;SDS011;11761;51.324;4.590;2023-03-03T14:25:14;8.10;;;4.75;;
23185;SDS011;11761;51.324;4.590;2023-03-03T14:35:36;7.45;;;4.43;;
23185;SDS011;11761;51.324;4.590;2023-03-03T14:40:43;7.90;;;4.38;;
23185;SDS011;11761;51.324;4.590;2023-03-03T14:43:23;7.50;;;4.40;;
23185;SDS011;11761;51.324;4.590;2023-03-03T14:45:51;6.00;;;3.50;;
23185;SDS011;11761;51.324;4.590;2023-03-03T14:48:22;6.88;;;3.67;;
23185;SDS011;11761;51.324;4.590;2023-03-03T14:53:36;6.15;;;3.67;;
23185;SDS011;11761;51.324;4.590;2023-03-03T14:56:23;6.20;;;3.25;;
23185;SDS011;11761;51.324;4.590;2023-03-03T14:58:50;7.18;;;3.58;;
23185;SDS011;11761;51.324;4.590;2023-03-03T15:01:30;5.68;;;3.60;;
23185;SDS011;11761;51.324;4.590;2023-03-03T15:04:09;6.82;;;3.45;;
23185;SDS011;11761;51.324;4.590;2023-03-03T15:06:50;7.32;;;3.30;;
23185;SDS011;11761;51.324;4.590;2023-03-03T15:09:37;8.25;;;3.70;;
23185;SDS011;11761;51.324;4.590;2023-03-03T15:12:52;4.70;;;3.25;;
23185;SDS011;11761;51.324;4.590;2023-03-03T15:18:12;6.32;;;2.97;;
23185;SDS011;11761;51.324;4.590;2023-03-03T15:20:41;7.22;;;2.90;;
23185;SDS011;11761;51.324;4.590;2023-03-03T15:34:13;5.30;;;3.10;;
23185;SDS011;11761;51.324;4.590;2023-03-03T15:54:17;6.28;;;3.50;;
23185;SDS011;11761;51.324;4.590;2023-03-03T15:56:52;4.50;;;2.78;;
23185;SDS011;11761;51.324;4.590;2023-03-03T16:02:27;5.03;;;2.75;;
23185;SDS011;11761;51.324;4.590;2023-03-03T16:13:20;6.05;;;3.20;;
23185;SDS011;11761;51.324;4.590;2023-03-03T16:16:15;4.75;;;3.13;;
23185;SDS011;11761;51.324;4.590;2023-03-03T16:19:16;4.63;;;3.17;;
23185;SDS011;11761;51.324;4.590;2023-03-03T16:32:47;15.73;;;7.55;;
23185;SDS011;11761;51.324;4.590;2023-03-03T16:35:20;4.60;;;2.83;;
23185;SDS011;11761;51.324;4.590;2023-03-03T16:40:48;5.18;;;2.65;;
23185;SDS011;11761;51.324;4.590;2023-03-03T16:43:25;5.68;;;3.13;;
23185;SDS011;11761;51.324;4.590;2023-03-03T16:49:10;6.63;;;3.35;;
23185;SDS011;11761;51.324;4.590;2023-03-03T16:51:58;5.07;;;3.00;;
23185;SDS011;11761;51.324;4.590;2023-03-03T16:54:41;5.15;;;2.38;;
23185;SDS011;11761;51.324;4.590;2023-03-03T17:08:05;4.65;;;2.63;;
23185;SDS011;11761;51.324;4.590;2023-03-03T17:23:58;4.25;;;2.20;;
23185;SDS011;11761;51.324;4.590;2023-03-03T17:29:19;4.07;;;2.50;;
23185;SDS011;11761;51.324;4.590;2023-03-03T17:43:09;5.13;;;3.13;;
23185;SDS011;11761;51.324;4.590;2023-03-03T17:45:43;5.30;;;3.05;;
23185;SDS011;11761;51.324;4.590;2023-03-03T18:22:18;5.07;;;3.80;;
23185;SDS011;11761;51.324;4.590;2023-03-03T18:24:58;6.57;;;4.13;;
23185;SDS011;11761;51.324;4.590;2023-03-03T18:27:30;6.47;;;4.13;;
23185;SDS011;11761;51.324;4.590;2023-03-03T18:41:00;6.07;;;4.30;;
23185;SDS011;11761;51.324;4.590;2023-03-03T19:05:16;8.98;;;6.00;;
23185;SDS011;11761;51.324;4.590;2023-03-03T19:12:52;11.25;;;7.22;;
23185;SDS011;11761;51.324;4.590;2023-03-03T19:18:12;10.13;;;6.55;;
23185;SDS011;11761;51.324;4.590;2023-03-03T19:32:02;10.02;;;6.95;;
23185;SDS011;11761;51.324;4.590;2023-03-03T19:43:02;10.38;;;7.53;;
23185;SDS011;11761;51.324;4.590;2023-03-03T19:54:20;10.52;;;8.05;;
23185;SDS011;11761;51.324;4.590;2023-03-03T19:56:52;10.77;;;7.70;;
23185;SDS011;11761;51.324;4.590;2023-03-03T20:00:06;10.75;;;7.90;;
23185;SDS011;11761;51.324;4.590;2023-03-03T20:08:08;10.70;;;8.40;;
23185;SDS011;11761;51.324;4.590;2023-03-03T20:10:44;10.05;;;7.70;;
23185;SDS011;11761;51.324;4.590;2023-03-03T20:13:21;11.68;;;8.57;;
23185;SDS011;11761;51.324;4.590;2023-03-03T20:15:59;12.60;;;8.57;;
23185;SDS011;11761;51.324;4.590;2023-03-03T20:18:54;10.75;;;8.18;;
23185;SDS011;11761;51.324;4.590;2023-03-03T20:21:31;12.48;;;8.38;;
23185;SDS011;11761;51.324;4.590;2023-03-03T20:29:36;10.88;;;8.73;;
23185;SDS011;11761;51.324;4.590;2023-03-03T20:43:59;14.20;;;8.63;;
23185;SDS011;11761;51.324;4.590;2023-03-03T20:46:51;14.55;;;8.27;;
23185;SDS011;11761;51.324;4.590;2023-03-03T20:49:38;12.82;;;8.45;;
23185;SDS011;11761;51.324;4.590;2023-03-03T20:52:29;11.25;;;8.07;;
23185;SDS011;11761;51.324;4.590;2023-03-03T21:06:13;10.48;;;5.72;;
23185;SDS011;11761;51.324;4.590;2023-03-03T21:11:21;12.30;;;5.30;;
23185;SDS011;11761;51.324;4.590;2023-03-03T21:17:10;10.13;;;5.18;;
23185;SDS011;11761;51.324;4.590;2023-03-03T21:19:54;10.23;;;5.43;;
23185;SDS011;11761;51.324;4.590;2023-03-03T21:22:40;17.00;;;5.22;;
23185;SDS011;11761;51.324;4.590;2023-03-03T21:25:06;14.20;;;5.07;;
23185;SDS011;11761;51.324;4.590;2023-03-03T21:36:14;15.00;;;4.90;;
23185;SDS011;11761;51.324;4.590;2023-03-03T21:38:49;14.85;;;4.72;;
23185;SDS011;11761;51.324;4.590;2023-03-03T21:41:17;16.15;;;5.60;;
23185;SDS011;11761;51.324;4.590;2023-03-03T21:43:48;14.68;;;5.93;;
23185;SDS011;11761;51.324;4.590;2023-03-03T21:46:16;14.70;;;5.60;;
23185;SDS011;11761;51.324;4.590;2023-03-03T21:48:47;17.20;;;5.95;;
23185;SDS011;11761;51.324;4.590;2023-03-03T21:51:14;11.52;;;5.82;;
23185;SDS011;11761;51.324;4.590;2023-03-03T21:53:41;15.38;;;5.90;;
23185;SDS011;11761;51.324;4.590;2023-03-03T21:56:08;19.75;;;6.15;;
23185;SDS011;11761;51.324;4.590;2023-03-03T21:58:35;22.65;;;6.43;;
23185;SDS011;11761;51.324;4.590;2023-03-03T22:01:03;14.32;;;5.55;;
23185;SDS011;11761;51.324;4.590;2023-03-03T22:03:30;15.18;;;5.65;;
23185;SDS011;11761;51.324;4.590;2023-03-03T22:05:57;17.67;;;5.43;;
23185;SDS011;11761;51.324;4.590;2023-03-03T22:08:23;14.15;;;6.28;;
23185;SDS011;11761;51.324;4.590;2023-03-03T22:10:49;13.65;;;5.97;;
23185;SDS011;11761;51.324;4.590;2023-03-03T22:13:22;17.00;;;8.10;;
23185;SDS011;11761;51.324;4.590;2023-03-03T22:15:48;16.67;;;8.27;;
23185;SDS011;11761;51.324;4.590;2023-03-03T22:18:18;16.75;;;8.52;;
23185;SDS011;11761;51.324;4.590;2023-03-03T22:20:45;20.23;;;9.00;;
23185;SDS011;11761;51.324;4.590;2023-03-03T22:23:12;17.20;;;8.77;;
23185;SDS011;11761;51.324;4.590;2023-03-03T22:25:40;18.33;;;8.63;;
23185;SDS011;11761;51.324;4.590;2023-03-03T22:28:06;21.15;;;9.15;;
23185;SDS011;11761;51.324;4.590;2023-03-03T22:30:32;18.23;;;9.23;;
23185;SDS011;11761;51.324;4.590;2023-03-03T22:32:58;19.30;;;9.00;;